createdAt,value
2017-08-05T00:00:26.901Z,0
2017-08-05T00:01:41.546Z,0
2017-08-05T00:02:26.648Z,0
2017-08-05T00:03:27.003Z,0
2017-08-05T00:04:26.997Z,0
2017-08-05T00:05:41.645Z,0
2017-08-05T00:06:41.640Z,0
2017-08-05T00:07:27.113Z,0
2017-08-05T00:08:26.796Z,0
2017-08-05T00:09:27.133Z,0
2017-08-05T00:10:26.823Z,0
2017-08-05T00:12:27.197Z,0
2017-08-05T00:13:27.247Z,0
2017-08-05T00:14:41.854Z,0
2017-08-05T00:15:27.291Z,0
2017-08-05T00:16:27.306Z,0
2017-08-05T00:17:41.925Z,0
2017-08-05T00:18:27.370Z,0
2017-08-05T00:19:27.359Z,0
2017-08-05T00:20:27.420Z,0
2017-08-05T00:21:27.447Z,0
2017-08-05T00:22:27.478Z,0
2017-08-05T00:23:41.773Z,0
2017-08-05T00:25:27.542Z,0
2017-08-05T00:26:27.547Z,0
2017-08-05T00:27:27.295Z,0
2017-08-05T00:28:27.292Z,0
2017-08-05T00:29:27.632Z,0
2017-08-05T00:30:42.254Z,0
2017-08-05T00:31:27.377Z,0
2017-08-05T00:32:27.712Z,0
2017-08-05T00:33:42.040Z,0
2017-08-05T00:34:27.444Z,0
2017-08-05T00:35:27.790Z,0
2017-08-05T00:36:27.809Z,0
2017-08-05T00:37:27.545Z,0
2017-08-05T00:38:27.842Z,0
2017-08-05T00:39:27.587Z,0
2017-08-05T00:40:27.888Z,0
2017-08-05T00:41:27.931Z,0
2017-08-05T00:42:42.548Z,0
2017-08-05T00:43:28.004Z,0
2017-08-05T00:44:27.706Z,0
2017-08-05T00:45:28.045Z,0
2017-08-05T00:46:42.653Z,0
2017-08-05T00:47:27.778Z,0
2017-08-05T00:48:28.092Z,0
2017-08-05T00:49:28.147Z,0
2017-08-05T00:51:27.880Z,0
2017-08-05T00:52:42.798Z,0
2017-08-05T00:53:28.249Z,0
2017-08-05T00:54:28.280Z,0
2017-08-05T00:55:27.961Z,0
2017-08-05T00:56:42.913Z,0
2017-08-05T00:57:28.312Z,0
2017-08-05T00:58:28.365Z,0
2017-08-05T00:59:28.083Z,0
2017-08-05T01:00:28.418Z,0
2017-08-05T01:01:43.015Z,0
2017-08-05T01:02:28.466Z,0
2017-08-05T01:03:28.495Z,0
2017-08-05T01:04:28.205Z,0
2017-08-05T01:05:28.535Z,0
2017-08-05T01:06:28.548Z,0
2017-08-05T01:07:28.571Z,0
2017-08-05T01:09:28.619Z,0
2017-08-05T01:10:28.677Z,0
2017-08-05T01:11:28.685Z,0
2017-08-05T01:12:28.708Z,0
2017-08-05T01:13:28.730Z,0
2017-08-05T01:14:28.748Z,0
2017-08-05T01:15:43.379Z,0
2017-08-05T01:16:28.807Z,0
2017-08-05T01:17:28.530Z,0
2017-08-05T01:18:28.868Z,0
2017-08-05T01:19:28.895Z,0
2017-08-05T01:20:28.884Z,0
2017-08-05T01:21:43.591Z,0
2017-08-05T01:22:28.941Z,0
2017-08-05T01:23:28.973Z,0
2017-08-05T01:24:43.615Z,0
2017-08-05T01:25:29.020Z,0
2017-08-05T01:26:29.074Z,0
2017-08-05T01:27:29.119Z,0
2017-08-05T01:28:29.093Z,0
2017-08-05T01:29:29.134Z,0
2017-08-05T01:30:29.141Z,0
2017-08-05T01:31:29.174Z,0
2017-08-05T01:32:29.193Z,0
2017-08-05T01:33:43.832Z,0
2017-08-05T01:34:29.251Z,0
2017-08-05T01:37:29.299Z,0
2017-08-05T01:38:29.356Z,0
2017-08-05T01:39:29.385Z,0
2017-08-05T01:40:29.108Z,0
2017-08-05T01:41:29.419Z,0
2017-08-05T01:42:29.136Z,0
2017-08-05T01:43:29.490Z,0
2017-08-05T01:44:29.500Z,0
2017-08-05T01:45:29.527Z,0
2017-08-05T01:46:29.541Z,0
2017-08-05T01:47:29.578Z,0
2017-08-05T01:48:44.170Z,0
2017-08-05T01:49:44.229Z,0
2017-08-05T01:51:29.698Z,0
2017-08-05T01:52:29.709Z,0
2017-08-05T01:53:29.695Z,0
2017-08-05T01:54:29.750Z,0
2017-08-05T01:55:29.781Z,0
2017-08-05T01:57:29.822Z,0
2017-08-05T01:58:29.854Z,0
2017-08-05T01:59:29.861Z,0
2017-08-05T02:00:29.899Z,0
2017-08-05T02:01:29.909Z,0
2017-08-05T02:02:29.958Z,0
2017-08-05T02:03:29.966Z,0
2017-08-05T02:04:30.006Z,0
2017-08-05T02:05:44.312Z,0
2017-08-05T02:06:30.046Z,0
2017-08-05T02:07:29.746Z,0
2017-08-05T02:08:29.771Z,0
2017-08-05T02:09:44.722Z,0
2017-08-05T02:10:44.743Z,0
2017-08-05T02:11:30.169Z,0
2017-08-05T02:12:29.876Z,0
2017-08-05T02:13:30.213Z,0
2017-08-05T02:14:44.826Z,0
2017-08-05T02:15:30.251Z,0
2017-08-05T02:16:29.971Z,0
2017-08-05T02:17:30.329Z,0
2017-08-05T02:18:30.347Z,0
2017-08-05T02:19:30.367Z,0
2017-08-05T02:20:30.049Z,0
2017-08-05T02:21:45.013Z,0
2017-08-05T02:22:30.456Z,0
2017-08-05T02:23:30.465Z,0
2017-08-05T02:24:30.483Z,0
2017-08-05T02:25:45.110Z,0
2017-08-05T02:27:30.617Z,0
2017-08-05T02:28:30.594Z,0
2017-08-05T02:29:30.602Z,0
2017-08-05T02:30:30.634Z,0
2017-08-05T02:31:30.619Z,0
2017-08-05T02:32:30.696Z,0
2017-08-05T02:33:30.387Z,0
2017-08-05T02:34:44.715Z,0
2017-08-05T02:35:30.770Z,0
2017-08-05T02:36:45.372Z,0
2017-08-05T02:37:30.820Z,0
2017-08-05T02:38:30.836Z,0
2017-08-05T02:39:45.443Z,0
2017-08-05T02:40:30.875Z,0
2017-08-05T02:41:30.587Z,0
2017-08-05T02:42:30.633Z,0
2017-08-05T02:43:30.937Z,0
2017-08-05T02:44:30.371Z,0
2017-08-05T02:45:45.599Z,0
2017-08-05T02:46:45.634Z,0
2017-08-05T02:47:31.062Z,0
2017-08-05T02:48:31.074Z,0
2017-08-05T02:49:31.086Z,0
2017-08-05T02:50:31.124Z,0
2017-08-05T02:51:30.827Z,0
2017-08-05T02:52:31.181Z,0
2017-08-05T02:53:31.171Z,0
2017-08-05T02:54:31.261Z,0
2017-08-05T02:55:31.246Z,0
2017-08-05T02:56:31.279Z,0
2017-08-05T02:57:31.290Z,0
2017-08-05T02:58:31.297Z,0
2017-08-05T02:59:31.350Z,0
2017-08-05T03:00:31.373Z,0
2017-08-05T03:01:31.392Z,0
2017-08-05T03:02:31.420Z,0
2017-08-05T03:03:31.443Z,0
2017-08-05T03:04:31.436Z,0
2017-08-05T03:05:31.184Z,0
2017-08-05T03:06:31.515Z,0
2017-08-05T03:07:31.561Z,0
2017-08-05T03:08:46.162Z,0
2017-08-05T03:09:31.598Z,0
2017-08-05T03:11:31.656Z,0
2017-08-05T03:12:31.641Z,0
2017-08-05T03:14:31.409Z,0
2017-08-05T03:15:31.737Z,0
2017-08-05T03:16:31.767Z,0
2017-08-05T03:17:46.386Z,0
2017-08-05T03:18:46.403Z,0
2017-08-05T03:19:31.811Z,0
2017-08-05T03:20:31.853Z,0
2017-08-05T03:21:31.856Z,0
2017-08-05T03:22:31.914Z,0
2017-08-05T03:23:31.941Z,0
2017-08-05T03:24:46.558Z,0
2017-08-05T03:25:31.990Z,0
2017-08-05T03:26:46.585Z,5
2017-08-05T03:27:32.030Z,5
2017-08-05T03:28:46.646Z,5
2017-08-05T03:29:32.083Z,5
2017-08-05T03:30:32.085Z,5
2017-08-05T03:31:32.148Z,5
2017-08-05T03:32:32.153Z,5
2017-08-05T03:33:32.159Z,5
2017-08-05T03:34:46.786Z,5
2017-08-05T03:35:46.812Z,5
2017-08-05T03:36:31.934Z,10
2017-08-05T03:37:46.857Z,10
2017-08-05T03:38:46.894Z,10
2017-08-05T03:39:32.320Z,10
2017-08-05T03:41:01.530Z,10
2017-08-05T03:42:32.080Z,10
2017-08-05T03:44:32.442Z,15
2017-08-05T03:46:32.169Z,15
2017-08-05T03:47:32.517Z,15
2017-08-05T03:49:31.939Z,20
2017-08-05T03:50:32.580Z,20
2017-08-05T03:51:32.611Z,20
2017-08-05T03:52:47.231Z,25
2017-08-05T03:53:32.662Z,25
2017-08-05T03:54:32.382Z,25
2017-08-05T03:55:32.707Z,25
2017-08-05T03:56:47.024Z,30
2017-08-05T03:57:32.734Z,30
2017-08-05T03:59:32.775Z,30
2017-08-05T04:01:32.843Z,35
2017-08-05T04:03:32.910Z,35
2017-08-05T04:04:32.919Z,40
2017-08-05T04:05:32.634Z,40
2017-08-05T04:06:47.238Z,40
2017-08-05T04:07:32.688Z,40
2017-08-05T04:08:47.300Z,45
2017-08-05T04:09:47.631Z,45
2017-08-05T04:10:33.078Z,45
2017-08-05T04:12:01.975Z,50
2017-08-05T04:13:47.739Z,50
2017-08-05T04:14:32.872Z,50
2017-08-05T04:15:32.873Z,55
2017-08-05T04:16:33.222Z,55
2017-08-05T04:17:33.269Z,55
2017-08-05T04:18:47.862Z,60
2017-08-05T04:19:33.291Z,60
2017-08-05T04:20:33.341Z,60
2017-08-05T04:21:33.347Z,65
2017-08-05T04:22:33.335Z,65
2017-08-05T04:23:33.079Z,65
2017-08-05T04:24:33.407Z,75
2017-08-05T04:25:33.424Z,70
2017-08-05T04:26:33.147Z,70
2017-08-05T04:28:33.501Z,70
2017-08-05T04:29:33.526Z,75
2017-08-05T04:30:33.244Z,75
2017-08-05T04:31:33.589Z,75
2017-08-05T04:32:33.604Z,80
2017-08-05T04:33:48.239Z,80
2017-08-05T04:34:33.639Z,80
2017-08-05T04:35:33.664Z,85
2017-08-05T04:36:33.659Z,90
2017-08-05T04:37:33.725Z,85
2017-08-05T04:38:33.736Z,90
2017-08-05T04:39:48.363Z,90
2017-08-05T04:40:33.795Z,90
2017-08-05T04:41:33.831Z,95
2017-08-05T04:42:33.855Z,95
2017-08-05T04:43:48.466Z,120
2017-08-05T04:44:33.870Z,130
2017-08-05T04:45:33.931Z,135
2017-08-05T04:46:33.914Z,120
2017-08-05T04:47:33.976Z,115
2017-08-05T04:48:33.982Z,115
2017-08-05T04:49:34.026Z,135
2017-08-05T04:50:33.732Z,140
2017-08-05T04:51:48.664Z,165
2017-08-05T04:52:48.694Z,160
2017-08-05T04:54:33.824Z,165
2017-08-05T04:55:34.150Z,175
2017-08-05T04:57:34.200Z,235
2017-08-05T04:58:48.522Z,575
2017-08-05T04:59:48.881Z,935
2017-08-05T05:00:34.276Z,965
2017-08-05T05:01:48.909Z,990
2017-08-05T05:02:34.329Z,980
2017-08-05T05:03:34.371Z,1005
2017-08-05T05:04:48.980Z,1005
2017-08-05T05:05:34.439Z,965
2017-08-05T05:06:34.442Z,895
2017-08-05T05:07:49.075Z,940
2017-08-05T05:08:34.169Z,975
2017-08-05T05:09:49.179Z,1045
2017-08-05T05:10:33.938Z,1030
2017-08-05T05:11:34.594Z,1090
2017-08-05T05:12:34.632Z,1090
2017-08-05T05:13:34.644Z,1015
2017-08-05T05:14:49.260Z,1020
2017-08-05T05:15:49.274Z,1105
2017-08-05T05:16:49.331Z,1165
2017-08-05T05:17:34.754Z,1125
2017-08-05T05:18:34.801Z,1065
2017-08-05T05:20:49.425Z,1065
2017-08-05T05:21:34.564Z,1075
2017-08-05T05:22:34.905Z,1155
2017-08-05T05:23:34.928Z,1145
2017-08-05T05:24:34.970Z,1110
2017-08-05T05:25:35.005Z,1080
2017-08-05T05:26:35.024Z,1110
2017-08-05T05:27:35.064Z,1115
2017-08-05T05:28:34.777Z,1110
2017-08-05T05:29:35.116Z,1155
2017-08-05T05:30:35.177Z,1065
2017-08-05T05:31:49.808Z,1075
2017-08-05T05:32:49.824Z,1100
2017-08-05T05:34:49.902Z,1050
2017-08-05T05:35:35.342Z,1040
2017-08-05T05:36:35.061Z,975
2017-08-05T05:37:49.977Z,920
2017-08-05T05:38:35.442Z,1025
2017-08-05T05:39:35.440Z,1170
2017-08-05T05:40:50.092Z,1130
2017-08-05T05:41:35.218Z,1110
2017-08-05T05:42:35.268Z,1095
2017-08-05T05:43:50.213Z,1085
2017-08-05T05:44:35.625Z,1100
2017-08-05T05:45:35.690Z,1130
2017-08-05T05:46:50.300Z,1075
2017-08-05T05:47:35.759Z,1060
2017-08-05T05:49:35.813Z,1085
2017-08-05T05:50:35.596Z,1105
2017-08-05T05:51:35.556Z,1135
2017-08-05T05:52:35.918Z,1105
2017-08-05T05:53:35.947Z,1130
2017-08-05T05:54:50.603Z,1160
2017-08-05T05:55:36.029Z,1160
2017-08-05T05:56:36.079Z,1035
2017-08-05T05:57:36.109Z,995
2017-08-05T05:58:36.138Z,1105
2017-08-05T05:59:50.762Z,1120
2017-08-05T06:00:36.223Z,1150
2017-08-05T06:01:36.231Z,1240
2017-08-05T06:02:36.566Z,1200
2017-08-05T06:03:36.292Z,1205
2017-08-05T06:04:36.360Z,1200
2017-08-05T06:05:36.075Z,1085
2017-08-05T06:06:36.433Z,1115
2017-08-05T06:08:36.476Z,1130
2017-08-05T06:09:36.504Z,1135
2017-08-05T06:10:36.535Z,1180
2017-08-05T06:11:36.590Z,1235
2017-08-05T06:12:36.631Z,1190
2017-08-05T06:13:36.683Z,1230
2017-08-05T06:14:36.683Z,1245
2017-08-05T06:15:51.348Z,1240
2017-08-05T06:16:36.459Z,1225
2017-08-05T06:17:36.808Z,1170
2017-08-05T06:18:51.465Z,1080
2017-08-05T06:19:36.879Z,1085
2017-08-05T06:20:36.939Z,370
2017-08-05T06:21:36.944Z,1235
2017-08-05T06:22:51.600Z,1250
2017-08-05T06:23:37.026Z,1205
2017-08-05T06:24:37.067Z,1175
2017-08-05T06:25:51.388Z,1170
2017-08-05T06:26:37.157Z,1210
2017-08-05T06:27:37.233Z,555
2017-08-05T06:28:37.209Z,335
2017-08-05T06:29:37.261Z,910
2017-08-05T06:30:37.311Z,235
2017-08-05T06:31:51.910Z,235
2017-08-05T06:32:37.374Z,270
2017-08-05T06:33:51.995Z,1110
2017-08-05T06:34:52.026Z,1115
2017-08-05T06:35:37.481Z,1135
2017-08-05T06:36:52.100Z,1120
2017-08-05T06:37:37.255Z,1125
2017-08-05T06:38:37.576Z,1150
2017-08-05T06:39:37.308Z,1170
2017-08-05T06:40:37.653Z,1145
2017-08-05T06:41:52.303Z,1095
2017-08-05T06:42:52.322Z,1095
2017-08-05T06:43:52.358Z,1130
2017-08-05T06:44:37.799Z,1075
2017-08-05T06:45:52.426Z,1075
2017-08-05T06:46:52.480Z,1105
2017-08-05T06:47:52.504Z,1070
2017-08-05T06:49:37.979Z,1100
2017-08-05T06:50:52.624Z,1050
2017-08-05T06:51:37.748Z,995
2017-08-05T06:52:37.779Z,975
2017-08-05T06:53:37.837Z,915
2017-08-05T06:54:37.849Z,860
2017-08-05T06:55:52.816Z,815
2017-08-05T06:56:38.231Z,795
2017-08-05T06:57:38.269Z,760
2017-08-05T06:58:38.293Z,775
2017-08-05T06:59:38.356Z,690
2017-08-05T07:00:52.977Z,630
2017-08-05T07:02:38.470Z,640
2017-08-05T07:03:38.523Z,610
2017-08-05T07:04:38.525Z,615
2017-08-05T07:05:53.164Z,600
2017-08-05T07:06:53.220Z,580
2017-08-05T07:07:53.237Z,605
2017-08-05T07:08:38.714Z,615
2017-08-05T07:09:38.736Z,610
2017-08-05T07:10:38.779Z,640
2017-08-05T07:11:38.836Z,665
2017-08-05T07:12:38.520Z,670
2017-08-05T07:13:38.870Z,705
2017-08-05T07:14:38.306Z,810
2017-08-05T07:15:38.985Z,1215
2017-08-05T07:16:38.371Z,1690
2017-08-05T07:18:38.425Z,1965
2017-08-05T07:19:39.118Z,1930
2017-08-05T07:21:53.486Z,1305
2017-08-05T07:22:39.206Z,1205
2017-08-05T07:23:38.958Z,1170
2017-08-05T07:24:39.297Z,1225
2017-08-05T07:25:39.363Z,1230
2017-08-05T07:26:39.387Z,1230
2017-08-05T07:27:39.435Z,1200
2017-08-05T07:28:39.137Z,1180
2017-08-05T07:29:39.484Z,1200
2017-08-05T07:30:54.138Z,1210
2017-08-05T07:31:39.574Z,1200
2017-08-05T07:32:54.224Z,1125
2017-08-05T07:33:39.350Z,1095
2017-08-05T07:34:54.297Z,1100
2017-08-05T07:35:39.720Z,1085
2017-08-05T07:36:39.759Z,1055
2017-08-05T07:37:39.794Z,1095
2017-08-05T07:38:54.467Z,1060
2017-08-05T07:39:39.896Z,1055
2017-08-05T07:40:39.921Z,1070
2017-08-05T07:41:39.977Z,1100
2017-08-05T07:42:54.601Z,1130
2017-08-05T07:43:54.642Z,1145
2017-08-05T07:44:40.062Z,1160
2017-08-05T07:45:40.139Z,1125
2017-08-05T07:46:54.757Z,1105
2017-08-05T07:47:40.180Z,1090
2017-08-05T07:48:40.243Z,1105
2017-08-05T07:49:40.272Z,1075
2017-08-05T07:50:40.304Z,1045
2017-08-05T07:51:40.041Z,1025
2017-08-05T07:52:40.372Z,1020
2017-08-05T07:53:55.025Z,1000
2017-08-05T07:54:40.441Z,965
2017-08-05T07:55:40.518Z,940
2017-08-05T07:56:40.549Z,945
2017-08-05T07:57:40.562Z,910
2017-08-05T07:58:40.299Z,920
2017-08-05T07:59:55.254Z,910
2017-08-05T08:00:55.313Z,900
2017-08-05T08:01:40.725Z,910
2017-08-05T08:02:40.797Z,900
2017-08-05T08:03:40.502Z,870
2017-08-05T08:04:40.556Z,855
2017-08-05T08:05:40.596Z,825
2017-08-05T08:06:40.625Z,840
2017-08-05T08:07:40.973Z,845
2017-08-05T08:08:40.989Z,845
2017-08-05T08:09:55.640Z,815
2017-08-05T08:10:55.378Z,785
2017-08-05T08:11:41.112Z,780
2017-08-05T08:12:41.177Z,185
2017-08-05T08:13:55.797Z,790
2017-08-05T08:14:41.226Z,785
2017-08-05T08:15:55.873Z,745
2017-08-05T08:16:41.015Z,730
2017-08-05T08:17:41.330Z,750
2017-08-05T08:18:41.087Z,735
2017-08-05T08:19:55.720Z,730
2017-08-05T08:20:41.459Z,730
2017-08-05T08:21:56.105Z,710
2017-08-05T08:22:41.546Z,735
2017-08-05T08:23:41.598Z,720
2017-08-05T08:24:41.605Z,695
2017-08-05T08:25:55.946Z,720
2017-08-05T08:26:41.665Z,675
2017-08-05T08:27:41.762Z,650
2017-08-05T08:28:41.753Z,635
2017-08-05T08:29:41.501Z,620
2017-08-05T08:30:41.842Z,600
2017-08-05T08:31:56.482Z,585
2017-08-05T08:32:41.931Z,590
2017-08-05T08:33:41.641Z,585
2017-08-05T08:34:41.691Z,580
2017-08-05T08:35:42.063Z,585
2017-08-05T08:36:42.074Z,585
2017-08-05T08:37:42.081Z,580
2017-08-05T08:38:42.154Z,570
2017-08-05T08:39:42.172Z,495
2017-08-05T08:40:42.206Z,290
2017-08-05T08:42:11.447Z,550
2017-08-05T08:42:42.298Z,590
2017-08-05T08:43:42.358Z,590
2017-08-05T08:44:42.371Z,575
2017-08-05T08:45:42.081Z,515
2017-08-05T08:46:42.141Z,550
2017-08-05T08:47:42.474Z,550
2017-08-05T08:48:42.525Z,545
2017-08-05T08:49:42.555Z,555
2017-08-05T08:50:57.207Z,580
2017-08-05T08:51:42.615Z,340
2017-08-05T08:52:42.683Z,290
2017-08-05T08:53:42.701Z,330
2017-08-05T08:55:42.781Z,475
2017-08-05T08:56:57.399Z,500
2017-08-05T08:57:42.839Z,395
2017-08-05T08:58:57.469Z,410
2017-08-05T08:59:42.932Z,440
2017-08-05T09:00:42.967Z,405
2017-08-05T09:01:42.981Z,455
2017-08-05T09:02:43.001Z,470
2017-08-05T09:03:43.054Z,410
2017-08-05T09:04:43.115Z,445
2017-08-05T09:05:43.142Z,440
2017-08-05T09:06:57.778Z,460
2017-08-05T09:08:43.266Z,375
2017-08-05T09:09:57.879Z,380
2017-08-05T09:10:57.924Z,465
2017-08-05T09:11:43.324Z,425
2017-08-05T09:13:43.415Z,350
2017-08-05T09:14:43.453Z,440
2017-08-05T09:15:43.488Z,400
2017-08-05T09:16:43.221Z,450
2017-08-05T09:17:43.572Z,545
2017-08-05T09:18:58.198Z,525
2017-08-05T09:19:43.636Z,435
2017-08-05T09:20:43.363Z,400
2017-08-05T09:22:43.730Z,370
2017-08-05T09:23:43.790Z,360
2017-08-05T09:24:43.506Z,435
2017-08-05T09:25:43.553Z,425
2017-08-05T09:26:43.573Z,395
2017-08-05T09:27:43.609Z,345
2017-08-05T09:28:58.554Z,340
2017-08-05T09:29:58.602Z,425
2017-08-05T09:30:44.049Z,390
2017-08-05T09:31:44.061Z,410
2017-08-05T09:32:44.107Z,410
2017-08-05T09:34:44.171Z,410
2017-08-05T09:35:44.229Z,425
2017-08-05T09:36:44.255Z,385
2017-08-05T09:37:43.954Z,275
2017-08-05T09:38:44.330Z,240
2017-08-05T09:39:44.346Z,240
2017-08-05T09:40:44.389Z,235
2017-08-05T09:41:44.423Z,235
2017-08-05T09:42:44.442Z,245
2017-08-05T09:43:44.480Z,235
2017-08-05T09:44:58.824Z,230
2017-08-05T09:45:44.235Z,240
2017-08-05T09:46:44.604Z,240
2017-08-05T09:47:44.676Z,265
2017-08-05T09:48:44.673Z,265
2017-08-05T09:49:44.685Z,250
2017-08-05T09:50:44.433Z,255
2017-08-05T09:51:44.443Z,255
2017-08-05T09:52:59.423Z,255
2017-08-05T09:53:59.427Z,345
2017-08-05T09:54:59.468Z,355
2017-08-05T09:55:44.931Z,340
2017-08-05T09:56:44.921Z,310
2017-08-05T09:57:45.048Z,305
2017-08-05T09:58:45.018Z,365
2017-08-05T09:59:45.012Z,350
2017-08-05T10:00:59.037Z,320
2017-08-05T10:01:45.094Z,315
2017-08-05T10:02:45.103Z,310
2017-08-05T10:03:45.161Z,305
2017-08-05T10:04:45.208Z,300
2017-08-05T10:06:45.277Z,450
2017-08-05T10:07:45.005Z,325
2017-08-05T10:08:45.329Z,345
2017-08-05T10:09:45.372Z,285
2017-08-05T10:10:45.393Z,270
2017-08-05T10:11:45.441Z,275
2017-08-05T10:12:45.157Z,285
2017-08-05T10:13:45.518Z,270
2017-08-05T10:14:45.542Z,260
2017-08-05T10:15:45.588Z,245
2017-08-05T10:16:59.896Z,220
2017-08-05T10:17:45.624Z,210
2017-08-05T10:18:45.677Z,265
2017-08-05T10:19:45.710Z,215
2017-08-05T10:20:45.761Z,220
2017-08-05T10:21:45.769Z,275
2017-08-05T10:22:45.505Z,390
2017-08-05T10:23:45.826Z,330
2017-08-05T10:24:45.867Z,380
2017-08-05T10:25:45.883Z,335
2017-08-05T10:27:00.548Z,300
2017-08-05T10:28:00.561Z,300
2017-08-05T10:28:46.008Z,300
2017-08-05T10:29:45.717Z,295
2017-08-05T10:32:00.687Z,270
2017-08-05T10:32:46.159Z,260
2017-08-05T10:33:46.153Z,255
2017-08-05T10:35:00.483Z,245
2017-08-05T10:35:46.230Z,235
2017-08-05T10:36:45.961Z,215
2017-08-05T10:37:45.737Z,200
2017-08-05T10:38:46.342Z,195
2017-08-05T10:39:46.389Z,190
2017-08-05T10:41:46.118Z,185
2017-08-05T10:42:46.158Z,175
2017-08-05T10:44:01.118Z,160
2017-08-05T10:44:46.221Z,155
2017-08-05T10:46:46.579Z,135
2017-08-05T10:47:46.615Z,130
2017-08-05T10:49:01.267Z,120
2017-08-05T10:49:46.372Z,120
2017-08-05T10:50:46.727Z,120
2017-08-05T10:52:01.342Z,125
2017-08-05T10:52:46.782Z,125
2017-08-05T10:53:46.792Z,135
2017-08-05T10:55:01.441Z,145
2017-08-05T10:56:01.172Z,145
2017-08-05T10:56:46.889Z,145
2017-08-05T10:57:46.651Z,145
2017-08-05T10:58:46.956Z,140
2017-08-05T10:59:47.001Z,140
2017-08-05T11:00:47.048Z,140
2017-08-05T11:01:47.062Z,145
2017-08-05T11:02:47.095Z,150
2017-08-05T11:04:01.713Z,150
2017-08-05T11:04:47.126Z,155
2017-08-05T11:05:47.197Z,155
2017-08-05T11:06:47.217Z,155
2017-08-05T11:08:01.868Z,155
2017-08-05T11:09:01.579Z,160
2017-08-05T11:09:47.306Z,160
2017-08-05T11:11:01.946Z,165
2017-08-05T11:12:47.407Z,170
2017-08-05T11:13:47.406Z,170
2017-08-05T11:14:47.472Z,165
2017-08-05T11:15:47.199Z,155
2017-08-05T11:16:47.206Z,145
2017-08-05T11:17:47.248Z,125
2017-08-05T11:18:47.891Z,110
2017-08-05T11:20:02.212Z,100
2017-08-05T11:20:47.369Z,90
2017-08-05T11:21:47.690Z,85
2017-08-05T11:22:47.695Z,90
2017-08-05T11:23:47.739Z,100
2017-08-05T11:24:47.776Z,105
2017-08-05T11:25:47.808Z,110
2017-08-05T11:26:47.547Z,110
2017-08-05T11:28:02.444Z,110
2017-08-05T11:28:47.865Z,110
2017-08-05T11:29:47.916Z,110
2017-08-05T11:30:47.665Z,110
2017-08-05T11:31:47.980Z,110
2017-08-05T11:35:02.353Z,90
2017-08-05T11:36:02.692Z,85
2017-08-05T11:36:48.133Z,80
2017-08-05T11:37:48.169Z,80
2017-08-05T11:38:48.180Z,80
2017-08-05T11:39:48.224Z,85
2017-08-05T11:40:47.933Z,85
2017-08-05T11:41:48.285Z,95
2017-08-05T11:42:48.301Z,100
2017-08-05T11:43:48.350Z,105
2017-08-05T11:44:48.024Z,100
2017-08-05T11:45:48.387Z,90
2017-08-05T11:47:03.019Z,75
2017-08-05T11:47:48.135Z,70
2017-08-05T11:48:48.505Z,70
2017-08-05T11:49:48.513Z,75
2017-08-05T11:50:48.538Z,80
2017-08-05T11:52:02.865Z,80
2017-08-05T11:52:48.595Z,85
2017-08-05T11:54:03.235Z,100
2017-08-05T11:54:48.632Z,105
2017-08-05T11:56:02.977Z,125
2017-08-05T11:56:48.728Z,140
2017-08-05T11:57:48.733Z,150
2017-08-05T11:58:48.781Z,150
2017-08-05T11:59:48.773Z,145
2017-08-05T12:00:48.837Z,145
2017-08-05T12:01:48.537Z,140
2017-08-05T12:02:48.593Z,140
2017-08-05T12:03:48.925Z,135
2017-08-05T12:04:48.655Z,135
2017-08-05T12:05:48.655Z,130
2017-08-05T12:07:03.626Z,135
2017-08-05T12:07:49.034Z,135
2017-08-05T12:08:49.053Z,145
2017-08-05T12:09:49.099Z,150
2017-08-05T12:10:48.817Z,155
2017-08-05T12:11:49.174Z,170
2017-08-05T12:12:49.163Z,190
2017-08-05T12:13:49.232Z,200
2017-08-05T12:14:49.228Z,200
2017-08-05T12:16:03.872Z,185
2017-08-05T12:16:49.287Z,180
2017-08-05T12:17:48.706Z,180
2017-08-05T12:18:49.361Z,185
2017-08-05T12:19:49.386Z,190
2017-08-05T12:20:48.807Z,185
2017-08-05T12:22:04.054Z,170
2017-08-05T12:22:49.484Z,170
2017-08-05T12:23:49.183Z,170
2017-08-05T12:24:49.508Z,170
2017-08-05T12:25:49.249Z,170
2017-08-05T12:26:49.583Z,165
2017-08-05T12:27:49.627Z,155
2017-08-05T12:30:04.267Z,145
2017-08-05T12:30:49.686Z,140
2017-08-05T12:31:49.699Z,135
2017-08-05T12:32:49.781Z,140
2017-08-05T12:33:49.794Z,140
2017-08-05T12:34:49.820Z,140
2017-08-05T12:36:04.114Z,150
2017-08-05T12:36:49.569Z,150
2017-08-05T12:37:49.892Z,150
2017-08-05T12:39:04.221Z,150
2017-08-05T12:39:49.950Z,150
2017-08-05T12:41:04.269Z,150
2017-08-05T12:41:50.018Z,150
2017-08-05T12:42:50.041Z,150
2017-08-05T12:43:50.084Z,155
2017-08-05T12:44:50.103Z,165
2017-08-05T12:45:50.119Z,175
2017-08-05T12:47:04.763Z,175
2017-08-05T12:48:04.771Z,165
2017-08-05T12:49:04.814Z,150
2017-08-05T12:49:50.246Z,130
2017-08-05T12:50:50.269Z,115
2017-08-05T12:51:50.314Z,105
2017-08-05T12:52:50.318Z,100
2017-08-05T12:53:50.359Z,95
2017-08-05T12:55:04.961Z,95
2017-08-05T12:55:50.397Z,95
2017-08-05T12:56:50.436Z,95
2017-08-05T12:57:50.479Z,95
2017-08-05T12:58:50.505Z,95
2017-08-05T12:59:50.511Z,90
2017-08-05T13:00:50.551Z,80
2017-08-05T13:01:50.582Z,70
2017-08-05T13:03:50.623Z,55
2017-08-05T13:04:50.680Z,50
2017-08-05T13:05:50.692Z,55
2017-08-05T13:06:50.427Z,65
2017-08-05T13:08:50.750Z,120
2017-08-05T13:09:50.834Z,140
2017-08-05T13:11:05.099Z,135
2017-08-05T13:11:50.550Z,115
2017-08-05T13:12:50.870Z,100
2017-08-05T13:13:50.906Z,105
2017-08-05T13:15:05.538Z,135
2017-08-05T13:16:50.984Z,195
2017-08-05T13:17:51.129Z,220
2017-08-05T13:18:50.734Z,245
2017-08-05T13:19:50.478Z,230
2017-08-05T13:20:51.089Z,210
2017-08-05T13:21:51.223Z,190
2017-08-05T13:22:51.158Z,170
2017-08-05T13:24:05.473Z,155
2017-08-05T13:24:50.910Z,140
2017-08-05T13:25:50.921Z,130
2017-08-05T13:27:05.886Z,135
2017-08-05T13:27:51.287Z,150
2017-08-05T13:28:51.327Z,165
2017-08-05T13:29:51.039Z,180
2017-08-05T13:30:51.086Z,185
2017-08-05T13:31:51.390Z,170
2017-08-05T13:32:51.429Z,150
2017-08-05T13:33:51.148Z,135
2017-08-05T13:34:51.186Z,130
2017-08-05T13:36:06.129Z,130
2017-08-05T13:36:51.519Z,130
2017-08-05T13:37:51.258Z,130
2017-08-05T13:38:51.307Z,125
2017-08-05T13:39:51.615Z,125
2017-08-05T13:41:05.959Z,120
2017-08-05T13:42:20.567Z,110
2017-08-05T13:43:51.743Z,105
2017-08-05T13:45:06.340Z,100
2017-08-05T13:47:06.436Z,85
2017-08-05T13:47:51.869Z,80
2017-08-05T13:50:06.505Z,80
2017-08-05T13:50:51.916Z,80
2017-08-05T13:51:51.960Z,80
2017-08-05T13:52:51.991Z,75
2017-08-05T13:53:52.040Z,65
2017-08-05T13:54:52.018Z,60
2017-08-05T13:55:52.076Z,55
2017-08-05T13:56:52.106Z,55
2017-08-05T13:57:52.130Z,55
2017-08-05T13:58:52.140Z,55
2017-08-05T13:59:52.190Z,55
2017-08-05T14:00:52.192Z,50
2017-08-05T14:01:52.248Z,50
2017-08-05T14:02:52.252Z,50
2017-08-05T14:03:52.278Z,45
2017-08-05T14:04:52.307Z,45
2017-08-05T14:05:52.036Z,45
2017-08-05T14:06:52.063Z,40
2017-08-05T14:07:52.082Z,40
2017-08-05T14:08:52.409Z,35
2017-08-05T14:09:52.465Z,35
2017-08-05T14:10:52.453Z,30
2017-08-05T14:11:52.506Z,30
2017-08-05T14:12:52.524Z,25
2017-08-05T14:14:07.168Z,25
2017-08-05T14:14:52.571Z,25
2017-08-05T14:15:52.315Z,30
2017-08-05T14:16:52.639Z,35
2017-08-05T14:17:52.673Z,35
2017-08-05T14:18:52.368Z,45
2017-08-05T14:19:52.699Z,50
2017-08-05T14:20:52.749Z,55
2017-08-05T14:21:52.765Z,55
2017-08-05T14:22:52.799Z,55
2017-08-05T14:23:52.824Z,55
2017-08-05T14:24:52.859Z,60
2017-08-05T14:25:52.870Z,65
2017-08-05T14:26:52.924Z,70
2017-08-05T14:28:52.962Z,75
2017-08-05T14:30:07.276Z,75
2017-08-05T14:30:52.387Z,75
2017-08-05T14:31:53.053Z,75
2017-08-05T14:33:07.657Z,70
2017-08-05T14:33:53.075Z,65
2017-08-05T14:34:53.115Z,60
2017-08-05T14:35:53.130Z,55
2017-08-05T14:36:53.190Z,55
2017-08-05T14:37:53.235Z,50
2017-08-05T14:38:53.236Z,45
2017-08-05T14:39:53.237Z,40
2017-08-05T14:40:53.288Z,40
2017-08-05T14:42:07.912Z,40
2017-08-05T14:42:53.318Z,35
2017-08-05T14:43:53.360Z,35
2017-08-05T14:44:53.374Z,30
2017-08-05T14:46:22.599Z,30
2017-08-05T14:46:53.434Z,30
2017-08-05T14:47:53.466Z,30
2017-08-05T14:48:53.452Z,30
2017-08-05T14:49:53.499Z,30
2017-08-05T14:51:53.561Z,50
2017-08-05T14:52:53.315Z,70